MSR745 HECA-LTFM
Flight info
| Callsign | MSR745 |
|---|---|
| Flight time | N/A |
| Altitude | 34000 |
| Route | CVO A16 DEGDI DCT SENTO Q777 RASDA M855 TOMBI UM855 SISPI |
| Aircraft | B738/M-SDE2E3FGHIRWXY/LB1 |
Departure
| Time | 2026-05-05 16:26 |
|---|---|
| Airport | Cairo International Airport (HECA) |
Arrival
| Time | N/A |
|---|---|
| Airport | İstanbul Airport (LTFM) |
| Time | Latitude | Longitude | Altitude | Speed | Heading |
|---|---|---|---|---|---|
| 2026-05-05 16:12 | 30.10794 | 31.39883 | 385 ft | 0 kts | 76° |
| 2026-05-05 16:18 | 30.10787 | 31.39859 | 385 ft | 2 kts | 71° |
| 2026-05-05 16:19 | 30.10782 | 31.39842 | 385 ft | 2 kts | 70° |
| 2026-05-05 16:19 | 30.10777 | 31.39826 | 385 ft | 2 kts | 70° |
| 2026-05-05 16:19 | 30.10767 | 31.39795 | 385 ft | 1 kts | 84° |
| 2026-05-05 16:20 | 30.10775 | 31.39783 | 385 ft | 1 kts | 174° |
| 2026-05-05 16:20 | 30.10781 | 31.39782 | 385 ft | 0 kts | 166° |
| 2026-05-05 16:22 | 30.10780 | 31.39782 | 385 ft | 0 kts | 166° |
| 2026-05-05 16:23 | 30.10752 | 31.39790 | 385 ft | 10 kts | 166° |
| 2026-05-05 16:23 | 30.10658 | 31.39820 | 385 ft | 17 kts | 165° |
| 2026-05-05 16:23 | 30.10416 | 31.39863 | 385 ft | 17 kts | 219° |
| 2026-05-05 16:24 | 30.10338 | 31.39761 | 385 ft | 17 kts | 229° |
| 2026-05-05 16:24 | 30.10253 | 31.39650 | 385 ft | 19 kts | 228° |
| 2026-05-05 16:24 | 30.10052 | 31.39675 | 385 ft | 17 kts | 140° |
| 2026-05-05 16:25 | 30.10009 | 31.39801 | 385 ft | 17 kts | 85° |
| 2026-05-05 16:25 | 30.10055 | 31.39934 | 385 ft | 0 kts | 50° |
| 2026-05-05 16:25 | 30.10105 | 31.40002 | 385 ft | 40 kts | 48° |
| 2026-05-05 16:26 | 30.11074 | 31.41291 | 386 ft | 163 kts | 49° |
| 2026-05-05 16:26 | 30.12703 | 31.43374 | 1354 ft | 182 kts | 45° |
| 2026-05-05 16:27 | 30.13582 | 31.44463 | 1920 ft | 188 kts | 48° |
| 2026-05-05 16:27 | 30.14432 | 31.45622 | 2336 ft | 198 kts | 50° |
| 2026-05-05 16:27 | 30.15359 | 31.46926 | 2486 ft | 224 kts | 49° |
| 2026-05-05 16:27 | 30.16419 | 31.48323 | 2953 ft | 237 kts | 46° |
| 2026-05-05 16:28 | 30.17856 | 31.49313 | 3366 ft | 253 kts | 9° |
| 2026-05-05 16:28 | 30.19601 | 31.49087 | 3940 ft | 261 kts | 336° |
| 2026-05-05 16:28 | 30.21181 | 31.48104 | 4684 ft | 263 kts | 329° |
| 2026-05-05 16:28 | 30.22805 | 31.47063 | 5290 ft | 270 kts | 332° |
| 2026-05-05 16:29 | 30.24457 | 31.46029 | 6030 ft | 272 kts | 331° |
| 2026-05-05 16:29 | 30.26125 | 31.44975 | 6749 ft | 275 kts | 331° |
| 2026-05-05 16:29 | 30.27807 | 31.43910 | 7470 ft | 278 kts | 331° |
| 2026-05-05 16:29 | 30.29503 | 31.42835 | 8190 ft | 281 kts | 331° |
| 2026-05-05 16:30 | 30.31202 | 31.41758 | 8902 ft | 284 kts | 331° |
| 2026-05-05 16:30 | 30.32931 | 31.40661 | 9619 ft | 287 kts | 331° |
| 2026-05-05 16:30 | 30.34705 | 31.39535 | 10286 ft | 293 kts | 331° |
| 2026-05-05 16:30 | 30.36551 | 31.38362 | 10523 ft | 314 kts | 331° |
| 2026-05-05 16:31 | 30.38493 | 31.37129 | 11201 ft | 318 kts | 331° |
| 2026-05-05 16:31 | 30.40426 | 31.35900 | 11830 ft | 324 kts | 331° |
| 2026-05-05 16:31 | 30.42405 | 31.34642 | 12546 ft | 328 kts | 331° |
| 2026-05-05 16:31 | 30.44401 | 31.33372 | 13246 ft | 331 kts | 331° |
| 2026-05-05 16:32 | 30.46489 | 31.32178 | 13938 ft | 335 kts | 340° |
| 2026-05-05 16:32 | 30.48733 | 31.31579 | 14641 ft | 338 kts | 351° |
| 2026-05-05 16:32 | 30.51083 | 31.31190 | 15325 ft | 342 kts | 351° |
| 2026-05-05 16:32 | 30.53430 | 31.30755 | 16016 ft | 344 kts | 351° |
| 2026-05-05 16:33 | 30.55783 | 31.30309 | 16670 ft | 348 kts | 351° |
| 2026-05-05 16:33 | 30.58156 | 31.29871 | 17302 ft | 351 kts | 351° |
| 2026-05-05 16:33 | 30.60582 | 31.29424 | 17925 ft | 354 kts | 351° |
| 2026-05-05 16:33 | 30.63029 | 31.28972 | 18529 ft | 357 kts | 351° |
| 2026-05-05 16:34 | 30.65466 | 31.28522 | 19109 ft | 360 kts | 351° |
| 2026-05-05 16:34 | 30.67958 | 31.28062 | 19683 ft | 364 kts | 351° |
| 2026-05-05 16:34 | 30.70443 | 31.27604 | 20233 ft | 367 kts | 351° |
| 2026-05-05 16:34 | 30.72972 | 31.27137 | 20776 ft | 370 kts | 351° |
| 2026-05-05 16:35 | 30.75494 | 31.26671 | 21296 ft | 373 kts | 351° |
| 2026-05-05 16:35 | 30.78042 | 31.26200 | 21803 ft | 376 kts | 351° |
| 2026-05-05 16:35 | 30.80628 | 31.25722 | 22301 ft | 378 kts | 351° |
| 2026-05-05 16:35 | 30.83232 | 31.25240 | 22784 ft | 381 kts | 351° |
| 2026-05-05 16:36 | 30.85871 | 31.24752 | 23256 ft | 384 kts | 351° |
| 2026-05-05 16:36 | 30.88492 | 31.24267 | 23710 ft | 387 kts | 351° |
| 2026-05-05 16:36 | 30.91142 | 31.23776 | 24152 ft | 389 kts | 351° |
| 2026-05-05 16:36 | 30.93826 | 31.23278 | 24586 ft | 392 kts | 351° |
| 2026-05-05 16:37 | 30.96518 | 31.22779 | 25007 ft | 395 kts | 351° |
| 2026-05-05 16:37 | 30.99211 | 31.22279 | 25413 ft | 397 kts | 351° |
| 2026-05-05 16:37 | 31.01961 | 31.21768 | 25814 ft | 400 kts | 351° |
| 2026-05-05 16:37 | 31.04683 | 31.21266 | 26204 ft | 402 kts | 351° |
| 2026-05-05 16:38 | 31.07479 | 31.20755 | 26579 ft | 405 kts | 351° |
| 2026-05-05 16:38 | 31.10210 | 31.20244 | 26938 ft | 407 kts | 351° |
| 2026-05-05 16:38 | 31.13019 | 31.19715 | 27306 ft | 409 kts | 351° |
| 2026-05-05 16:38 | 31.15850 | 31.19186 | 27656 ft | 411 kts | 351° |
| 2026-05-05 16:39 | 31.18672 | 31.18688 | 27994 ft | 414 kts | 353° |
| 2026-05-05 16:39 | 31.21559 | 31.18503 | 28314 ft | 416 kts | 1° |
| 2026-05-05 16:39 | 31.23478 | 31.18656 | 28526 ft | 417 kts | 7° |
| 2026-05-05 16:39 | 31.27227 | 31.19753 | 28948 ft | 420 kts | 21° |
| 2026-05-05 16:40 | 31.29875 | 31.21148 | 29259 ft | 421 kts | 27° |
| 2026-05-05 16:40 | 31.32476 | 31.22734 | 29562 ft | 423 kts | 27° |
| 2026-05-05 16:40 | 31.35091 | 31.24294 | 29838 ft | 426 kts | 26° |
| 2026-05-05 16:40 | 31.37711 | 31.25831 | 30120 ft | 428 kts | 26° |
| 2026-05-05 16:41 | 31.40368 | 31.27402 | 30396 ft | 430 kts | 27° |
| 2026-05-05 16:41 | 31.43044 | 31.28998 | 30669 ft | 431 kts | 27° |
| 2026-05-05 16:41 | 31.45714 | 31.30597 | 30933 ft | 433 kts | 27° |
| 2026-05-05 16:41 | 31.48405 | 31.32208 | 31193 ft | 435 kts | 27° |
| 2026-05-05 16:42 | 31.51104 | 31.33801 | 31443 ft | 437 kts | 24° |
| 2026-05-05 16:42 | 31.53929 | 31.35063 | 31665 ft | 439 kts | 15° |
| 2026-05-05 16:42 | 31.56906 | 31.35797 | 31908 ft | 440 kts | 6° |
| 2026-05-05 16:42 | 31.59921 | 31.35938 | 32131 ft | 442 kts | 357° |
| 2026-05-05 16:43 | 31.62986 | 31.35631 | 32385 ft | 443 kts | 354° |
| 2026-05-05 16:43 | 31.66063 | 31.35271 | 32593 ft | 445 kts | 354° |
| 2026-05-05 16:43 | 31.69115 | 31.34970 | 32806 ft | 446 kts | 355° |
| 2026-05-05 16:43 | 31.72237 | 31.34672 | 33018 ft | 448 kts | 355° |
| 2026-05-05 16:44 | 31.75305 | 31.34366 | 33272 ft | 448 kts | 355° |
| 2026-05-05 16:44 | 31.78404 | 31.34049 | 33645 ft | 445 kts | 355° |
| 2026-05-05 16:44 | 31.81480 | 31.33734 | 33925 ft | 444 kts | 355° |
| 2026-05-05 16:44 | 31.84522 | 31.33422 | 33993 ft | 447 kts | 355° |
| 2026-05-05 16:45 | 31.90695 | 31.32782 | 33999 ft | 445 kts | 355° |
| 2026-05-05 16:45 | 31.96821 | 31.32135 | 34000 ft | 443 kts | 354° |
| 2026-05-05 16:46 | 32.02952 | 31.31492 | 34004 ft | 443 kts | 355° |
| 2026-05-05 16:46 | 32.09084 | 31.30878 | 34000 ft | 444 kts | 355° |
| 2026-05-05 16:47 | 32.15189 | 31.30206 | 33999 ft | 444 kts | 354° |
| 2026-05-05 16:47 | 32.21349 | 31.29534 | 33999 ft | 444 kts | 354° |
| 2026-05-05 16:48 | 32.27472 | 31.28870 | 33999 ft | 444 kts | 354° |
| 2026-05-05 16:48 | 32.33592 | 31.28208 | 34000 ft | 444 kts | 354° |
| 2026-05-05 16:49 | 32.39688 | 31.27548 | 34000 ft | 444 kts | 354° |
| 2026-05-05 16:49 | 32.45815 | 31.26886 | 34000 ft | 444 kts | 354° |
| 2026-05-05 16:50 | 32.51966 | 31.26220 | 33999 ft | 444 kts | 354° |
| 2026-05-05 16:50 | 32.58019 | 31.24961 | 33999 ft | 443 kts | 343° |
| 2026-05-05 16:51 | 32.63633 | 31.22109 | 34000 ft | 443 kts | 333° |
| 2026-05-05 16:51 | 32.69146 | 31.18893 | 34000 ft | 443 kts | 334° |
| 2026-05-05 16:52 | 32.74686 | 31.15707 | 34000 ft | 443 kts | 334° |
| 2026-05-05 16:52 | 32.80196 | 31.12499 | 33999 ft | 443 kts | 334° |
| 2026-05-05 16:53 | 32.85696 | 31.09286 | 34000 ft | 443 kts | 334° |
| 2026-05-05 16:53 | 32.91220 | 31.06050 | 33999 ft | 443 kts | 334° |
| 2026-05-05 16:54 | 32.96724 | 31.02819 | 33999 ft | 443 kts | 334° |
| 2026-05-05 16:54 | 33.02213 | 30.99590 | 34000 ft | 443 kts | 334° |
| 2026-05-05 16:55 | 33.07791 | 30.96500 | 33999 ft | 443 kts | 340° |
| 2026-05-05 16:55 | 33.13776 | 30.94914 | 34001 ft | 443 kts | 356° |
| 2026-05-05 16:56 | 33.19918 | 30.94717 | 34000 ft | 443 kts | 358° |
| 2026-05-05 16:56 | 33.26062 | 30.94440 | 33999 ft | 443 kts | 358° |
| 2026-05-05 16:57 | 33.32204 | 30.94190 | 33999 ft | 443 kts | 358° |
| 2026-05-05 16:57 | 33.38340 | 30.93950 | 34000 ft | 443 kts | 358° |
| 2026-05-05 16:58 | 33.44449 | 30.93713 | 33999 ft | 443 kts | 358° |
| 2026-05-05 16:58 | 33.50586 | 30.93479 | 34000 ft | 443 kts | 358° |
| 2026-05-05 16:59 | 33.56739 | 30.93244 | 33999 ft | 443 kts | 358° |
| 2026-05-05 16:59 | 33.62858 | 30.93012 | 34000 ft | 443 kts | 358° |
| 2026-05-05 17:00 | 33.69023 | 30.92777 | 34000 ft | 443 kts | 358° |
| 2026-05-05 17:00 | 33.75140 | 30.92545 | 34000 ft | 443 kts | 358° |
| 2026-05-05 17:01 | 33.81284 | 30.92311 | 33999 ft | 443 kts | 358° |
| 2026-05-05 17:01 | 33.87441 | 30.92076 | 33999 ft | 443 kts | 358° |
| 2026-05-05 17:02 | 33.93579 | 30.91842 | 33999 ft | 443 kts | 358° |
| 2026-05-05 17:02 | 33.99698 | 30.91559 | 33999 ft | 443 kts | 357° |
| 2026-05-05 17:03 | 34.05830 | 30.91199 | 34000 ft | 442 kts | 357° |
| 2026-05-05 17:03 | 34.11965 | 30.90857 | 34000 ft | 443 kts | 357° |
| 2026-05-05 17:04 | 34.18099 | 30.90514 | 34000 ft | 443 kts | 357° |
| 2026-05-05 17:04 | 34.24234 | 30.90172 | 34000 ft | 443 kts | 357° |
| 2026-05-05 17:05 | 34.30369 | 30.89863 | 33999 ft | 443 kts | 358° |
| 2026-05-05 17:05 | 34.36462 | 30.89570 | 34000 ft | 443 kts | 358° |
| 2026-05-05 17:06 | 34.42612 | 30.89269 | 34000 ft | 443 kts | 358° |
| 2026-05-05 17:06 | 34.48721 | 30.88970 | 34000 ft | 443 kts | 358° |
| 2026-05-05 17:07 | 34.54868 | 30.88668 | 34000 ft | 443 kts | 358° |
| 2026-05-05 17:07 | 34.60968 | 30.88368 | 34000 ft | 443 kts | 358° |
| 2026-05-05 17:08 | 34.67112 | 30.88132 | 34000 ft | 443 kts | 359° |
| 2026-05-05 17:08 | 34.73243 | 30.87946 | 34000 ft | 443 kts | 358° |
| 2026-05-05 17:09 | 34.79402 | 30.87744 | 34000 ft | 443 kts | 358° |
| 2026-05-05 17:09 | 34.85519 | 30.87543 | 33999 ft | 443 kts | 358° |
| 2026-05-05 17:10 | 34.91646 | 30.87341 | 34000 ft | 443 kts | 358° |
| 2026-05-05 17:10 | 34.97770 | 30.87138 | 34000 ft | 443 kts | 358° |
| 2026-05-05 17:11 | 35.03901 | 30.86935 | 34000 ft | 443 kts | 358° |
| 2026-05-05 17:11 | 35.10052 | 30.86730 | 34000 ft | 443 kts | 358° |
| 2026-05-05 17:12 | 35.15799 | 30.86539 | 34000 ft | 443 kts | 358° |
| 2026-05-05 17:12 | 35.21905 | 30.86335 | 34000 ft | 443 kts | 358° |
| 2026-05-05 17:13 | 35.28036 | 30.86130 | 34000 ft | 443 kts | 358° |
| 2026-05-05 17:13 | 35.34169 | 30.85925 | 34000 ft | 443 kts | 358° |
| 2026-05-05 17:14 | 35.39265 | 30.85754 | 34000 ft | 443 kts | 358° |
| 2026-05-05 17:14 | 35.46421 | 30.85514 | 33999 ft | 443 kts | 358° |
| 2026-05-05 17:15 | 35.51522 | 30.85342 | 34000 ft | 443 kts | 358° |
| 2026-05-05 17:15 | 35.58718 | 30.85099 | 34000 ft | 443 kts | 358° |
| 2026-05-05 17:16 | 35.63792 | 30.84909 | 33999 ft | 443 kts | 358° |
| 2026-05-05 17:16 | 35.70934 | 30.84455 | 33999 ft | 442 kts | 357° |
| 2026-05-05 17:17 | 35.75051 | 30.84203 | 33999 ft | 442 kts | 357° |
| 2026-05-05 17:17 | 35.83165 | 30.83712 | 33997 ft | 442 kts | 358° |
| 2026-05-05 17:18 | 35.89320 | 30.83407 | 34003 ft | 442 kts | 357° |
| 2026-05-05 17:18 | 35.95432 | 30.83026 | 33997 ft | 442 kts | 357° |
| 2026-05-05 17:19 | 36.01540 | 30.82619 | 34000 ft | 442 kts | 357° |
| 2026-05-05 17:19 | 36.06660 | 30.82328 | 33999 ft | 442 kts | 358° |
| 2026-05-05 17:20 | 36.13789 | 30.82117 | 33999 ft | 442 kts | 359° |
| 2026-05-05 17:20 | 36.18862 | 30.81949 | 34000 ft | 442 kts | 358° |
| 2026-05-05 17:21 | 36.26044 | 30.81711 | 34000 ft | 442 kts | 358° |
| 2026-05-05 17:22 | 36.35206 | 30.81406 | 34000 ft | 442 kts | 358° |
| 2026-05-05 17:22 | 36.41352 | 30.81201 | 33999 ft | 442 kts | 358° |
| 2026-05-05 17:23 | 36.46446 | 30.81028 | 34000 ft | 442 kts | 358° |
| 2026-05-05 17:23 | 36.53614 | 30.80780 | 34000 ft | 442 kts | 358° |
| 2026-05-05 17:24 | 36.59750 | 30.80568 | 34000 ft | 442 kts | 358° |
| 2026-05-05 17:24 | 36.65831 | 30.80358 | 33999 ft | 442 kts | 358° |
| 2026-05-05 17:25 | 36.71985 | 30.80145 | 34000 ft | 442 kts | 358° |
| 2026-05-05 17:25 | 36.77078 | 30.79969 | 34000 ft | 442 kts | 358° |
| 2026-05-05 17:26 | 36.84241 | 30.79720 | 33999 ft | 442 kts | 358° |
| 2026-05-05 17:26 | 36.90386 | 30.79506 | 34000 ft | 442 kts | 358° |
| 2026-05-05 17:27 | 36.96508 | 30.79029 | 34000 ft | 442 kts | 354° |
| 2026-05-05 17:27 | 37.02612 | 30.78172 | 34000 ft | 442 kts | 354° |
| 2026-05-05 17:28 | 37.08687 | 30.77409 | 33999 ft | 442 kts | 354° |
| 2026-05-05 17:28 | 37.14795 | 30.76638 | 33999 ft | 442 kts | 354° |
| 2026-05-05 17:29 | 37.19846 | 30.76003 | 33999 ft | 441 kts | 354° |
| 2026-05-05 17:29 | 37.26985 | 30.75107 | 34000 ft | 441 kts | 354° |
| 2026-05-05 17:30 | 37.32038 | 30.74474 | 34000 ft | 441 kts | 354° |
| 2026-05-05 17:30 | 37.39142 | 30.73582 | 34000 ft | 441 kts | 354° |
| 2026-05-05 17:31 | 37.45251 | 30.72773 | 34000 ft | 441 kts | 353° |
| 2026-05-05 17:31 | 37.51328 | 30.71864 | 34000 ft | 441 kts | 353° |
| 2026-05-05 17:32 | 37.57412 | 30.70974 | 33999 ft | 441 kts | 353° |
| 2026-05-05 17:32 | 37.63482 | 30.70170 | 34000 ft | 441 kts | 355° |
| 2026-05-05 17:33 | 37.69563 | 30.69440 | 33999 ft | 441 kts | 354° |
| 2026-05-05 17:33 | 37.75684 | 30.68683 | 33999 ft | 441 kts | 354° |
| 2026-05-05 17:34 | 37.81749 | 30.67933 | 33999 ft | 441 kts | 354° |
| 2026-05-05 17:34 | 37.86847 | 30.67301 | 34000 ft | 441 kts | 354° |
| 2026-05-05 17:35 | 37.93961 | 30.66343 | 34000 ft | 441 kts | 353° |
| 2026-05-05 17:35 | 38.00050 | 30.65442 | 33999 ft | 441 kts | 354° |
| 2026-05-05 17:36 | 38.06121 | 30.64655 | 34000 ft | 441 kts | 354° |
| 2026-05-05 17:36 | 38.12231 | 30.63857 | 34000 ft | 441 kts | 354° |
| 2026-05-05 17:37 | 38.18329 | 30.63057 | 34000 ft | 441 kts | 354° |
| 2026-05-05 17:37 | 38.24407 | 30.62258 | 34000 ft | 441 kts | 354° |
| 2026-05-05 17:38 | 38.30510 | 30.61660 | 34000 ft | 441 kts | 359° |
| 2026-05-05 17:38 | 38.36602 | 30.61675 | 34000 ft | 441 kts | 360° |
| 2026-05-05 17:39 | 38.42744 | 30.61604 | 34000 ft | 441 kts | 360° |
| 2026-05-05 17:39 | 38.48877 | 30.61539 | 34000 ft | 441 kts | 360° |
| 2026-05-05 17:40 | 38.54976 | 30.61472 | 34000 ft | 441 kts | 360° |
| 2026-05-05 17:40 | 38.61093 | 30.61404 | 33999 ft | 441 kts | 360° |
| 2026-05-05 17:41 | 38.67225 | 30.61325 | 33999 ft | 441 kts | 358° |
| 2026-05-05 17:41 | 38.73246 | 30.60134 | 33999 ft | 440 kts | 342° |
| 2026-05-05 17:42 | 38.78786 | 30.56829 | 34000 ft | 441 kts | 332° |
| 2026-05-05 17:42 | 38.84222 | 30.53289 | 33996 ft | 441 kts | 334° |
| 2026-05-05 17:43 | 38.89665 | 30.49772 | 33999 ft | 441 kts | 333° |
| 2026-05-05 17:43 | 38.95123 | 30.46183 | 33999 ft | 441 kts | 333° |
| 2026-05-05 17:44 | 39.00547 | 30.42618 | 33999 ft | 441 kts | 333° |
| 2026-05-05 17:44 | 39.06016 | 30.39011 | 33999 ft | 441 kts | 333° |
| 2026-05-05 17:45 | 39.10563 | 30.36008 | 33999 ft | 441 kts | 333° |
| 2026-05-05 17:45 | 39.15187 | 30.32950 | 34000 ft | 441 kts | 333° |
| 2026-05-05 17:46 | 39.20652 | 30.29328 | 33999 ft | 441 kts | 333° |
| 2026-05-05 17:46 | 39.26083 | 30.25722 | 33999 ft | 441 kts | 333° |
| 2026-05-05 17:47 | 39.31510 | 30.22113 | 33999 ft | 441 kts | 333° |
| 2026-05-05 17:47 | 39.36943 | 30.18493 | 33999 ft | 441 kts | 333° |
| 2026-05-05 17:48 | 39.42378 | 30.14865 | 34000 ft | 441 kts | 333° |
| 2026-05-05 17:48 | 39.47842 | 30.11287 | 33999 ft | 441 kts | 335° |
| 2026-05-05 17:49 | 39.53473 | 30.08227 | 34000 ft | 441 kts | 337° |
| 2026-05-05 17:49 | 39.59113 | 30.05116 | 34000 ft | 441 kts | 336° |
| 2026-05-05 17:50 | 39.64703 | 30.02008 | 34000 ft | 441 kts | 337° |
| 2026-05-05 17:50 | 39.70346 | 29.98862 | 34000 ft | 441 kts | 336° |
| 2026-05-05 17:51 | 39.75945 | 29.95730 | 34000 ft | 441 kts | 336° |
| 2026-05-05 17:51 | 39.81546 | 29.92588 | 33999 ft | 441 kts | 336° |
| 2026-05-05 17:52 | 39.87197 | 29.89409 | 34000 ft | 441 kts | 336° |
| 2026-05-05 17:52 | 39.92771 | 29.86210 | 33993 ft | 441 kts | 334° |
| 2026-05-05 17:53 | 39.98014 | 29.82093 | 34023 ft | 439 kts | 324° |